sensor_id;sensor_type;location;lat;lon;timestamp;P1;durP1;ratioP1;P2;durP2;ratioP2
6983;SDS011;3532;51.118;7.210;2023-11-21T00:02:18;13.37;;;10.07;;
6983;SDS011;3532;51.118;7.210;2023-11-21T00:04:43;12.97;;;9.83;;
6983;SDS011;3532;51.118;7.210;2023-11-21T00:07:09;12.73;;;9.37;;
6983;SDS011;3532;51.118;7.210;2023-11-21T00:09:34;11.60;;;9.77;;
6983;SDS011;3532;51.118;7.210;2023-11-21T00:12:01;12.23;;;9.03;;
6983;SDS011;3532;51.118;7.210;2023-11-21T00:14:27;13.97;;;10.13;;
6983;SDS011;3532;51.118;7.210;2023-11-21T00:16:52;11.53;;;9.20;;
6983;SDS011;3532;51.118;7.210;2023-11-21T00:19:17;13.37;;;9.90;;
6983;SDS011;3532;51.118;7.210;2023-11-21T00:21:43;11.57;;;9.83;;
6983;SDS011;3532;51.118;7.210;2023-11-21T00:24:10;12.60;;;10.20;;
6983;SDS011;3532;51.118;7.210;2023-11-21T00:26:38;13.70;;;10.13;;
6983;SDS011;3532;51.118;7.210;2023-11-21T00:29:03;10.93;;;9.10;;
6983;SDS011;3532;51.118;7.210;2023-11-21T00:31:28;15.47;;;10.57;;
6983;SDS011;3532;51.118;7.210;2023-11-21T00:33:56;14.60;;;10.30;;
6983;SDS011;3532;51.118;7.210;2023-11-21T00:36:22;14.70;;;10.83;;
6983;SDS011;3532;51.118;7.210;2023-11-21T00:38:47;14.80;;;10.77;;
6983;SDS011;3532;51.118;7.210;2023-11-21T00:41:13;12.57;;;10.47;;
6983;SDS011;3532;51.118;7.210;2023-11-21T00:43:38;14.80;;;10.67;;
6983;SDS011;3532;51.118;7.210;2023-11-21T00:46:04;11.37;;;9.57;;
6983;SDS011;3532;51.118;7.210;2023-11-21T00:48:32;11.43;;;9.47;;
6983;SDS011;3532;51.118;7.210;2023-11-21T00:50:57;12.00;;;9.63;;
6983;SDS011;3532;51.118;7.210;2023-11-21T00:53:22;13.60;;;10.23;;
6983;SDS011;3532;51.118;7.210;2023-11-21T00:55:48;72.83;;;19.50;;
6983;SDS011;3532;51.118;7.210;2023-11-21T00:58:13;12.80;;;10.50;;
6983;SDS011;3532;51.118;7.210;2023-11-21T01:00:38;11.23;;;10.07;;
6983;SDS011;3532;51.118;7.210;2023-11-21T01:03:06;18.03;;;11.23;;
6983;SDS011;3532;51.118;7.210;2023-11-21T01:05:33;13.97;;;10.77;;
6983;SDS011;3532;51.118;7.210;2023-11-21T01:07:59;12.47;;;9.67;;
6983;SDS011;3532;51.118;7.210;2023-11-21T01:10:24;19.40;;;10.37;;
6983;SDS011;3532;51.118;7.210;2023-11-21T01:12:50;12.13;;;8.43;;
6983;SDS011;3532;51.118;7.210;2023-11-21T01:15:15;11.33;;;9.03;;
6983;SDS011;3532;51.118;7.210;2023-11-21T01:17:40;10.53;;;9.23;;
6983;SDS011;3532;51.118;7.210;2023-11-21T01:20:06;13.33;;;8.73;;
6983;SDS011;3532;51.118;7.210;2023-11-21T01:22:38;13.83;;;9.73;;
6983;SDS011;3532;51.118;7.210;2023-11-21T01:25:04;10.77;;;9.10;;
6983;SDS011;3532;51.118;7.210;2023-11-21T01:27:31;9.77;;;8.77;;
6983;SDS011;3532;51.118;7.210;2023-11-21T01:29:57;12.10;;;10.13;;
6983;SDS011;3532;51.118;7.210;2023-11-21T01:32:22;16.17;;;11.33;;
6983;SDS011;3532;51.118;7.210;2023-11-21T01:34:49;12.07;;;10.17;;
6983;SDS011;3532;51.118;7.210;2023-11-21T01:37:15;11.67;;;9.67;;
6983;SDS011;3532;51.118;7.210;2023-11-21T01:39:42;11.07;;;9.17;;
6983;SDS011;3532;51.118;7.210;2023-11-21T01:42:09;12.23;;;9.90;;
6983;SDS011;3532;51.118;7.210;2023-11-21T01:44:36;9.70;;;8.47;;
6983;SDS011;3532;51.118;7.210;2023-11-21T01:47:01;40.63;;;13.27;;
6983;SDS011;3532;51.118;7.210;2023-11-21T01:49:30;9.70;;;8.70;;
6983;SDS011;3532;51.118;7.210;2023-11-21T01:51:59;10.00;;;8.03;;
6983;SDS011;3532;51.118;7.210;2023-11-21T01:54:24;11.77;;;9.77;;
6983;SDS011;3532;51.118;7.210;2023-11-21T01:56:50;11.47;;;9.10;;
6983;SDS011;3532;51.118;7.210;2023-11-21T01:59:18;12.20;;;8.67;;
6983;SDS011;3532;51.118;7.210;2023-11-21T02:01:45;9.73;;;8.30;;
6983;SDS011;3532;51.118;7.210;2023-11-21T02:04:11;22.87;;;10.67;;
6983;SDS011;3532;51.118;7.210;2023-11-21T02:06:37;12.53;;;8.50;;
6983;SDS011;3532;51.118;7.210;2023-11-21T02:09:04;12.10;;;8.83;;
6983;SDS011;3532;51.118;7.210;2023-11-21T02:11:29;9.40;;;8.40;;
6983;SDS011;3532;51.118;7.210;2023-11-21T02:13:55;10.50;;;9.40;;
6983;SDS011;3532;51.118;7.210;2023-11-21T02:16:20;18.73;;;9.43;;
6983;SDS011;3532;51.118;7.210;2023-11-21T02:18:49;10.70;;;8.57;;
6983;SDS011;3532;51.118;7.210;2023-11-21T02:21:15;17.20;;;7.83;;
6983;SDS011;3532;51.118;7.210;2023-11-21T02:23:40;20.10;;;9.83;;
6983;SDS011;3532;51.118;7.210;2023-11-21T02:26:09;12.30;;;10.03;;
6983;SDS011;3532;51.118;7.210;2023-11-21T02:28:35;12.67;;;9.00;;
6983;SDS011;3532;51.118;7.210;2023-11-21T02:31:01;9.60;;;8.00;;
6983;SDS011;3532;51.118;7.210;2023-11-21T02:33:28;9.20;;;7.83;;
6983;SDS011;3532;51.118;7.210;2023-11-21T02:35:53;14.07;;;8.63;;
6983;SDS011;3532;51.118;7.210;2023-11-21T02:38:20;10.53;;;8.80;;
6983;SDS011;3532;51.118;7.210;2023-11-21T02:40:45;11.40;;;9.70;;
6983;SDS011;3532;51.118;7.210;2023-11-21T02:43:11;14.57;;;8.87;;
6983;SDS011;3532;51.118;7.210;2023-11-21T02:45:36;12.37;;;9.23;;
6983;SDS011;3532;51.118;7.210;2023-11-21T02:48:01;9.23;;;7.73;;
6983;SDS011;3532;51.118;7.210;2023-11-21T02:50:27;10.20;;;8.20;;
6983;SDS011;3532;51.118;7.210;2023-11-21T02:52:52;9.03;;;7.50;;
6983;SDS011;3532;51.118;7.210;2023-11-21T02:55:17;11.90;;;7.93;;
6983;SDS011;3532;51.118;7.210;2023-11-21T02:57:43;13.03;;;8.00;;
6983;SDS011;3532;51.118;7.210;2023-11-21T03:00:08;7.43;;;6.70;;
6983;SDS011;3532;51.118;7.210;2023-11-21T03:02:34;18.47;;;8.43;;
6983;SDS011;3532;51.118;7.210;2023-11-21T03:05:04;10.93;;;9.10;;
6983;SDS011;3532;51.118;7.210;2023-11-21T03:07:30;15.23;;;10.40;;
6983;SDS011;3532;51.118;7.210;2023-11-21T03:09:56;48.33;;;15.17;;
6983;SDS011;3532;51.118;7.210;2023-11-21T03:12:21;11.23;;;9.87;;
6983;SDS011;3532;51.118;7.210;2023-11-21T03:14:46;15.63;;;10.50;;
6983;SDS011;3532;51.118;7.210;2023-11-21T03:17:12;14.03;;;9.30;;
6983;SDS011;3532;51.118;7.210;2023-11-21T03:19:40;10.40;;;8.50;;
6983;SDS011;3532;51.118;7.210;2023-11-21T03:22:06;12.37;;;8.60;;
6983;SDS011;3532;51.118;7.210;2023-11-21T03:24:31;10.43;;;7.93;;
6983;SDS011;3532;51.118;7.210;2023-11-21T03:26:57;12.67;;;9.03;;
6983;SDS011;3532;51.118;7.210;2023-11-21T03:29:22;11.27;;;9.03;;
6983;SDS011;3532;51.118;7.210;2023-11-21T03:31:47;12.87;;;10.40;;
6983;SDS011;3532;51.118;7.210;2023-11-21T03:34:23;12.17;;;8.63;;
6983;SDS011;3532;51.118;7.210;2023-11-21T03:36:50;8.37;;;7.50;;
6983;SDS011;3532;51.118;7.210;2023-11-21T03:39:16;8.97;;;7.43;;
6983;SDS011;3532;51.118;7.210;2023-11-21T03:41:41;8.17;;;6.53;;
6983;SDS011;3532;51.118;7.210;2023-11-21T03:44:06;10.30;;;8.27;;
6983;SDS011;3532;51.118;7.210;2023-11-21T03:46:32;11.27;;;8.50;;
6983;SDS011;3532;51.118;7.210;2023-11-21T03:48:57;11.17;;;8.57;;
6983;SDS011;3532;51.118;7.210;2023-11-21T03:51:22;12.73;;;8.47;;
6983;SDS011;3532;51.118;7.210;2023-11-21T03:53:47;12.20;;;9.60;;
6983;SDS011;3532;51.118;7.210;2023-11-21T03:56:13;14.07;;;9.30;;
6983;SDS011;3532;51.118;7.210;2023-11-21T03:58:39;13.50;;;9.70;;
6983;SDS011;3532;51.118;7.210;2023-11-21T04:01:04;9.67;;;8.67;;
6983;SDS011;3532;51.118;7.210;2023-11-21T04:03:30;14.10;;;10.27;;
6983;SDS011;3532;51.118;7.210;2023-11-21T04:05:55;15.77;;;10.43;;
6983;SDS011;3532;51.118;7.210;2023-11-21T04:08:20;14.03;;;9.77;;
6983;SDS011;3532;51.118;7.210;2023-11-21T04:10:45;16.53;;;11.50;;
6983;SDS011;3532;51.118;7.210;2023-11-21T04:13:11;18.50;;;11.33;;
6983;SDS011;3532;51.118;7.210;2023-11-21T04:15:36;12.50;;;10.00;;
6983;SDS011;3532;51.118;7.210;2023-11-21T04:18:01;14.50;;;9.83;;
6983;SDS011;3532;51.118;7.210;2023-11-21T04:20:27;15.20;;;9.80;;
6983;SDS011;3532;51.118;7.210;2023-11-21T04:22:53;14.03;;;9.77;;
6983;SDS011;3532;51.118;7.210;2023-11-21T04:25:18;13.10;;;9.57;;
6983;SDS011;3532;51.118;7.210;2023-11-21T04:27:44;10.33;;;8.67;;
6983;SDS011;3532;51.118;7.210;2023-11-21T04:30:10;9.60;;;8.03;;
6983;SDS011;3532;51.118;7.210;2023-11-21T04:32:36;11.17;;;8.20;;
6983;SDS011;3532;51.118;7.210;2023-11-21T04:35:02;10.10;;;7.43;;
6983;SDS011;3532;51.118;7.210;2023-11-21T04:37:29;10.70;;;8.97;;
6983;SDS011;3532;51.118;7.210;2023-11-21T04:39:54;14.53;;;10.37;;
6983;SDS011;3532;51.118;7.210;2023-11-21T04:42:19;15.50;;;11.03;;
6983;SDS011;3532;51.118;7.210;2023-11-21T04:44:45;15.77;;;10.83;;
6983;SDS011;3532;51.118;7.210;2023-11-21T04:47:10;15.57;;;11.17;;
6983;SDS011;3532;51.118;7.210;2023-11-21T04:49:35;16.53;;;11.83;;
6983;SDS011;3532;51.118;7.210;2023-11-21T04:52:01;15.93;;;10.87;;
6983;SDS011;3532;51.118;7.210;2023-11-21T04:54:27;16.03;;;11.23;;
6983;SDS011;3532;51.118;7.210;2023-11-21T04:56:52;16.03;;;11.27;;
6983;SDS011;3532;51.118;7.210;2023-11-21T04:59:17;14.03;;;10.93;;
6983;SDS011;3532;51.118;7.210;2023-11-21T05:01:43;15.07;;;10.30;;
6983;SDS011;3532;51.118;7.210;2023-11-21T05:04:08;20.00;;;13.43;;
6983;SDS011;3532;51.118;7.210;2023-11-21T05:06:34;21.97;;;13.10;;
6983;SDS011;3532;51.118;7.210;2023-11-21T05:08:59;22.33;;;14.10;;
6983;SDS011;3532;51.118;7.210;2023-11-21T05:11:25;10.63;;;9.47;;
6983;SDS011;3532;51.118;7.210;2023-11-21T05:13:51;16.50;;;11.73;;
6983;SDS011;3532;51.118;7.210;2023-11-21T05:16:17;16.60;;;10.57;;
6983;SDS011;3532;51.118;7.210;2023-11-21T05:18:43;14.50;;;10.67;;
6983;SDS011;3532;51.118;7.210;2023-11-21T05:21:09;14.07;;;11.17;;
6983;SDS011;3532;51.118;7.210;2023-11-21T05:23:34;18.37;;;11.27;;
6983;SDS011;3532;51.118;7.210;2023-11-21T05:26:00;18.23;;;12.33;;
6983;SDS011;3532;51.118;7.210;2023-11-21T05:28:25;15.30;;;11.43;;
6983;SDS011;3532;51.118;7.210;2023-11-21T05:30:50;14.30;;;11.53;;
6983;SDS011;3532;51.118;7.210;2023-11-21T05:33:16;18.53;;;11.20;;
6983;SDS011;3532;51.118;7.210;2023-11-21T05:35:41;18.73;;;12.73;;
6983;SDS011;3532;51.118;7.210;2023-11-21T05:38:06;16.00;;;11.07;;
6983;SDS011;3532;51.118;7.210;2023-11-21T05:40:32;19.67;;;13.17;;
6983;SDS011;3532;51.118;7.210;2023-11-21T05:42:57;22.93;;;12.60;;
6983;SDS011;3532;51.118;7.210;2023-11-21T05:45:24;16.37;;;11.73;;
6983;SDS011;3532;51.118;7.210;2023-11-21T05:47:49;15.07;;;10.90;;
6983;SDS011;3532;51.118;7.210;2023-11-21T05:50:15;15.90;;;11.47;;
6983;SDS011;3532;51.118;7.210;2023-11-21T05:52:42;19.17;;;11.63;;
6983;SDS011;3532;51.118;7.210;2023-11-21T05:55:08;14.57;;;10.33;;
6983;SDS011;3532;51.118;7.210;2023-11-21T05:57:37;16.63;;;9.50;;
6983;SDS011;3532;51.118;7.210;2023-11-21T06:00:07;12.73;;;10.27;;
6983;SDS011;3532;51.118;7.210;2023-11-21T06:02:40;13.53;;;9.33;;
6983;SDS011;3532;51.118;7.210;2023-11-21T06:05:06;13.17;;;10.03;;
6983;SDS011;3532;51.118;7.210;2023-11-21T06:07:33;47.70;;;14.70;;
6983;SDS011;3532;51.118;7.210;2023-11-21T06:09:58;16.30;;;10.97;;
6983;SDS011;3532;51.118;7.210;2023-11-21T06:12:23;15.70;;;11.77;;
6983;SDS011;3532;51.118;7.210;2023-11-21T06:14:49;18.20;;;12.10;;
6983;SDS011;3532;51.118;7.210;2023-11-21T06:17:14;15.90;;;12.00;;
6983;SDS011;3532;51.118;7.210;2023-11-21T06:19:39;20.77;;;12.43;;
6983;SDS011;3532;51.118;7.210;2023-11-21T06:22:05;17.97;;;12.10;;
6983;SDS011;3532;51.118;7.210;2023-11-21T06:24:30;15.87;;;12.13;;
6983;SDS011;3532;51.118;7.210;2023-11-21T06:26:56;19.73;;;14.60;;
6983;SDS011;3532;51.118;7.210;2023-11-21T06:29:21;29.83;;;16.40;;
6983;SDS011;3532;51.118;7.210;2023-11-21T06:31:47;23.47;;;15.13;;
6983;SDS011;3532;51.118;7.210;2023-11-21T06:34:12;19.97;;;14.27;;
6983;SDS011;3532;51.118;7.210;2023-11-21T06:36:38;13.10;;;10.07;;
6983;SDS011;3532;51.118;7.210;2023-11-21T06:39:04;22.60;;;12.60;;
6983;SDS011;3532;51.118;7.210;2023-11-21T06:41:32;28.00;;;15.33;;
6983;SDS011;3532;51.118;7.210;2023-11-21T06:43:58;22.33;;;15.00;;
6983;SDS011;3532;51.118;7.210;2023-11-21T06:46:24;25.13;;;13.97;;
6983;SDS011;3532;51.118;7.210;2023-11-21T06:48:49;19.90;;;12.37;;
6983;SDS011;3532;51.118;7.210;2023-11-21T06:51:15;15.03;;;10.40;;
6983;SDS011;3532;51.118;7.210;2023-11-21T06:53:40;11.37;;;9.13;;
6983;SDS011;3532;51.118;7.210;2023-11-21T06:56:14;19.77;;;10.90;;
6983;SDS011;3532;51.118;7.210;2023-11-21T06:58:40;14.10;;;10.87;;
6983;SDS011;3532;51.118;7.210;2023-11-21T07:01:06;17.13;;;11.47;;
6983;SDS011;3532;51.118;7.210;2023-11-21T07:03:31;13.83;;;11.00;;
6983;SDS011;3532;51.118;7.210;2023-11-21T07:05:56;14.70;;;12.13;;
6983;SDS011;3532;51.118;7.210;2023-11-21T07:08:22;20.80;;;11.77;;
6983;SDS011;3532;51.118;7.210;2023-11-21T07:10:47;20.17;;;12.47;;
6983;SDS011;3532;51.118;7.210;2023-11-21T07:13:12;20.17;;;14.10;;
6983;SDS011;3532;51.118;7.210;2023-11-21T07:15:38;19.73;;;12.73;;
6983;SDS011;3532;51.118;7.210;2023-11-21T07:18:03;16.80;;;12.83;;
6983;SDS011;3532;51.118;7.210;2023-11-21T07:20:28;17.20;;;13.20;;
6983;SDS011;3532;51.118;7.210;2023-11-21T07:22:55;23.27;;;14.87;;
6983;SDS011;3532;51.118;7.210;2023-11-21T07:25:21;23.63;;;14.73;;
6983;SDS011;3532;51.118;7.210;2023-11-21T07:27:47;21.93;;;14.40;;
6983;SDS011;3532;51.118;7.210;2023-11-21T07:30:12;20.80;;;15.03;;
6983;SDS011;3532;51.118;7.210;2023-11-21T07:32:38;21.03;;;13.90;;
6983;SDS011;3532;51.118;7.210;2023-11-21T07:35:04;25.03;;;14.63;;
6983;SDS011;3532;51.118;7.210;2023-11-21T07:37:30;24.10;;;15.93;;
6983;SDS011;3532;51.118;7.210;2023-11-21T07:39:55;22.27;;;13.10;;
6983;SDS011;3532;51.118;7.210;2023-11-21T07:42:22;23.00;;;14.50;;
6983;SDS011;3532;51.118;7.210;2023-11-21T07:44:49;20.83;;;13.20;;
6983;SDS011;3532;51.118;7.210;2023-11-21T07:47:15;24.07;;;13.93;;
6983;SDS011;3532;51.118;7.210;2023-11-21T07:49:40;18.10;;;13.43;;
6983;SDS011;3532;51.118;7.210;2023-11-21T07:52:08;19.13;;;12.17;;
6983;SDS011;3532;51.118;7.210;2023-11-21T07:54:34;25.70;;;13.57;;
6983;SDS011;3532;51.118;7.210;2023-11-21T07:57:00;19.33;;;13.17;;
6983;SDS011;3532;51.118;7.210;2023-11-21T07:59:26;22.83;;;12.57;;
6983;SDS011;3532;51.118;7.210;2023-11-21T08:01:51;23.20;;;13.37;;
6983;SDS011;3532;51.118;7.210;2023-11-21T08:04:16;23.63;;;15.57;;
6983;SDS011;3532;51.118;7.210;2023-11-21T08:06:42;28.00;;;16.30;;
6983;SDS011;3532;51.118;7.210;2023-11-21T08:09:07;32.83;;;17.63;;
6983;SDS011;3532;51.118;7.210;2023-11-21T08:11:33;23.33;;;15.23;;
6983;SDS011;3532;51.118;7.210;2023-11-21T08:13:58;25.73;;;14.77;;
6983;SDS011;3532;51.118;7.210;2023-11-21T08:16:24;19.43;;;12.93;;
6983;SDS011;3532;51.118;7.210;2023-11-21T08:18:50;23.17;;;13.83;;
6983;SDS011;3532;51.118;7.210;2023-11-21T08:21:16;24.23;;;15.20;;
6983;SDS011;3532;51.118;7.210;2023-11-21T08:23:41;26.60;;;14.27;;
6983;SDS011;3532;51.118;7.210;2023-11-21T08:26:06;21.73;;;13.93;;
6983;SDS011;3532;51.118;7.210;2023-11-21T08:28:33;14.70;;;10.00;;
6983;SDS011;3532;51.118;7.210;2023-11-21T08:31:00;16.10;;;10.43;;
6983;SDS011;3532;51.118;7.210;2023-11-21T08:33:26;13.50;;;9.70;;
6983;SDS011;3532;51.118;7.210;2023-11-21T08:35:51;14.70;;;10.53;;
6983;SDS011;3532;51.118;7.210;2023-11-21T08:38:16;16.30;;;10.27;;
6983;SDS011;3532;51.118;7.210;2023-11-21T08:40:42;17.73;;;11.03;;
6983;SDS011;3532;51.118;7.210;2023-11-21T08:43:08;26.00;;;15.43;;
6983;SDS011;3532;51.118;7.210;2023-11-21T08:45:33;27.40;;;15.03;;
6983;SDS011;3532;51.118;7.210;2023-11-21T08:47:59;34.83;;;17.43;;
6983;SDS011;3532;51.118;7.210;2023-11-21T08:50:27;25.97;;;16.30;;
6983;SDS011;3532;51.118;7.210;2023-11-21T08:52:53;22.03;;;14.20;;
6983;SDS011;3532;51.118;7.210;2023-11-21T08:55:18;24.70;;;14.50;;
6983;SDS011;3532;51.118;7.210;2023-11-21T08:57:45;25.80;;;16.07;;
6983;SDS011;3532;51.118;7.210;2023-11-21T09:00:12;24.53;;;15.63;;
6983;SDS011;3532;51.118;7.210;2023-11-21T09:02:38;32.30;;;15.10;;
6983;SDS011;3532;51.118;7.210;2023-11-21T09:05:07;25.80;;;15.67;;
6983;SDS011;3532;51.118;7.210;2023-11-21T09:07:34;22.63;;;14.77;;
6983;SDS011;3532;51.118;7.210;2023-11-21T09:09:59;21.70;;;14.67;;
6983;SDS011;3532;51.118;7.210;2023-11-21T09:12:24;22.43;;;13.20;;
6983;SDS011;3532;51.118;7.210;2023-11-21T09:14:50;23.37;;;14.33;;
6983;SDS011;3532;51.118;7.210;2023-11-21T09:17:15;27.40;;;14.30;;
6983;SDS011;3532;51.118;7.210;2023-11-21T09:19:41;22.40;;;14.47;;
6983;SDS011;3532;51.118;7.210;2023-11-21T09:22:06;23.10;;;15.17;;
6983;SDS011;3532;51.118;7.210;2023-11-21T09:24:32;24.00;;;15.70;;
6983;SDS011;3532;51.118;7.210;2023-11-21T09:26:58;26.33;;;15.57;;
6983;SDS011;3532;51.118;7.210;2023-11-21T09:29:24;22.90;;;15.73;;
6983;SDS011;3532;51.118;7.210;2023-11-21T09:31:50;30.07;;;16.80;;
6983;SDS011;3532;51.118;7.210;2023-11-21T09:34:19;27.67;;;17.17;;
6983;SDS011;3532;51.118;7.210;2023-11-21T09:36:45;30.60;;;16.23;;
6983;SDS011;3532;51.118;7.210;2023-11-21T09:39:11;24.50;;;15.47;;
6983;SDS011;3532;51.118;7.210;2023-11-21T09:41:52;31.00;;;19.25;;
6983;SDS011;3532;51.118;7.210;2023-11-21T09:44:35;78.53;;;22.67;;
6983;SDS011;3532;51.118;7.210;2023-11-21T09:47:04;40.63;;;21.37;;
6983;SDS011;3532;51.118;7.210;2023-11-21T09:49:35;42.13;;;21.43;;
6983;SDS011;3532;51.118;7.210;2023-11-21T09:52:02;39.70;;;20.53;;
6983;SDS011;3532;51.118;7.210;2023-11-21T09:54:30;34.67;;;18.73;;
6983;SDS011;3532;51.118;7.210;2023-11-21T09:56:57;39.97;;;19.97;;
6983;SDS011;3532;51.118;7.210;2023-11-21T09:59:24;41.47;;;22.47;;
6983;SDS011;3532;51.118;7.210;2023-11-21T10:01:55;55.07;;;25.33;;
6983;SDS011;3532;51.118;7.210;2023-11-21T10:04:23;49.03;;;25.93;;
6983;SDS011;3532;51.118;7.210;2023-11-21T10:06:48;47.87;;;25.00;;
6983;SDS011;3532;51.118;7.210;2023-11-21T10:09:15;49.33;;;24.80;;
6983;SDS011;3532;51.118;7.210;2023-11-21T10:11:41;55.90;;;27.77;;
6983;SDS011;3532;51.118;7.210;2023-11-21T10:14:10;55.27;;;26.20;;
6983;SDS011;3532;51.118;7.210;2023-11-21T10:16:37;56.17;;;27.30;;
6983;SDS011;3532;51.118;7.210;2023-11-21T10:19:04;57.70;;;28.63;;
6983;SDS011;3532;51.118;7.210;2023-11-21T10:21:31;68.57;;;28.20;;
6983;SDS011;3532;51.118;7.210;2023-11-21T10:23:58;64.83;;;28.20;;
6983;SDS011;3532;51.118;7.210;2023-11-21T10:26:23;51.63;;;27.13;;
6983;SDS011;3532;51.118;7.210;2023-11-21T10:28:58;57.10;;;27.20;;
6983;SDS011;3532;51.118;7.210;2023-11-21T10:31:25;52.13;;;25.70;;
6983;SDS011;3532;51.118;7.210;2023-11-21T10:33:52;50.53;;;26.83;;
6983;SDS011;3532;51.118;7.210;2023-11-21T10:36:24;60.17;;;28.60;;
6983;SDS011;3532;51.118;7.210;2023-11-21T10:38:51;48.67;;;24.10;;
6983;SDS011;3532;51.118;7.210;2023-11-21T10:41:18;62.00;;;26.63;;
6983;SDS011;3532;51.118;7.210;2023-11-21T10:43:43;50.10;;;25.10;;
6983;SDS011;3532;51.118;7.210;2023-11-21T10:46:09;44.77;;;24.77;;
6983;SDS011;3532;51.118;7.210;2023-11-21T10:48:34;52.20;;;23.40;;
6983;SDS011;3532;51.118;7.210;2023-11-21T10:51:00;58.73;;;25.47;;
6983;SDS011;3532;51.118;7.210;2023-11-21T10:53:32;51.00;;;25.67;;
6983;SDS011;3532;51.118;7.210;2023-11-21T10:56:02;53.17;;;23.67;;
6983;SDS011;3532;51.118;7.210;2023-11-21T10:58:31;50.50;;;25.57;;
6983;SDS011;3532;51.118;7.210;2023-11-21T11:00:57;53.40;;;25.63;;
6983;SDS011;3532;51.118;7.210;2023-11-21T11:03:23;56.30;;;26.03;;
6983;SDS011;3532;51.118;7.210;2023-11-21T11:05:49;54.80;;;24.00;;
6983;SDS011;3532;51.118;7.210;2023-11-21T11:08:16;59.47;;;26.40;;
6983;SDS011;3532;51.118;7.210;2023-11-21T11:10:44;49.47;;;25.00;;
6983;SDS011;3532;51.118;7.210;2023-11-21T11:13:15;53.73;;;26.83;;
6983;SDS011;3532;51.118;7.210;2023-11-21T11:15:41;58.60;;;26.40;;
6983;SDS011;3532;51.118;7.210;2023-11-21T11:18:06;48.40;;;24.97;;
6983;SDS011;3532;51.118;7.210;2023-11-21T11:20:34;47.40;;;24.17;;
6983;SDS011;3532;51.118;7.210;2023-11-21T11:33:10;39.90;;;20.87;;
6983;SDS011;3532;51.118;7.210;2023-11-21T11:35:04;38.30;;;19.73;;
6983;SDS011;3532;51.118;7.210;2023-11-21T11:37:35;40.50;;;18.87;;
6983;SDS011;3532;51.118;7.210;2023-11-21T11:40:00;29.70;;;16.77;;
6983;SDS011;3532;51.118;7.210;2023-11-21T11:42:26;30.73;;;18.03;;
6983;SDS011;3532;51.118;7.210;2023-11-21T11:44:52;34.10;;;17.70;;
6983;SDS011;3532;51.118;7.210;2023-11-21T11:55:12;36.03;;;17.80;;
6983;SDS011;3532;51.118;7.210;2023-11-21T11:57:44;31.90;;;17.97;;
6983;SDS011;3532;51.118;7.210;2023-11-21T12:00:18;26.10;;;16.10;;
6983;SDS011;3532;51.118;7.210;2023-11-21T12:03:00;35.27;;;18.87;;
6983;SDS011;3532;51.118;7.210;2023-11-21T12:05:28;39.28;;;24.60;;
6983;SDS011;3532;51.118;7.210;2023-11-21T12:07:57;38.10;;;21.80;;
6983;SDS011;3532;51.118;7.210;2023-11-21T12:10:25;42.07;;;21.33;;
6983;SDS011;3532;51.118;7.210;2023-11-21T12:12:59;37.57;;;20.17;;
6983;SDS011;3532;51.118;7.210;2023-11-21T12:15:32;35.30;;;19.17;;
6983;SDS011;3532;51.118;7.210;2023-11-21T12:17:58;30.93;;;19.80;;
6983;SDS011;3532;51.118;7.210;2023-11-21T12:20:24;39.43;;;21.03;;
6983;SDS011;3532;51.118;7.210;2023-11-21T12:22:51;37.27;;;17.67;;
6983;SDS011;3532;51.118;7.210;2023-11-21T12:25:18;35.07;;;17.70;;
6983;SDS011;3532;51.118;7.210;2023-11-21T12:27:45;33.13;;;19.03;;
6983;SDS011;3532;51.118;7.210;2023-11-21T12:30:12;30.73;;;17.03;;
6983;SDS011;3532;51.118;7.210;2023-11-21T12:32:42;31.47;;;17.70;;
6983;SDS011;3532;51.118;7.210;2023-11-21T12:35:09;29.33;;;15.53;;
6983;SDS011;3532;51.118;7.210;2023-11-21T12:37:36;29.80;;;16.67;;
6983;SDS011;3532;51.118;7.210;2023-11-21T12:40:03;26.60;;;16.00;;
6983;SDS011;3532;51.118;7.210;2023-11-21T12:42:33;34.13;;;16.73;;
6983;SDS011;3532;51.118;7.210;2023-11-21T12:45:09;28.23;;;16.70;;
6983;SDS011;3532;51.118;7.210;2023-11-21T12:47:49;34.27;;;16.73;;
6983;SDS011;3532;51.118;7.210;2023-11-21T12:50:20;25.27;;;15.10;;
6983;SDS011;3532;51.118;7.210;2023-11-21T12:52:48;29.37;;;16.07;;
6983;SDS011;3532;51.118;7.210;2023-11-21T12:55:17;27.07;;;14.57;;
6983;SDS011;3532;51.118;7.210;2023-11-21T12:57:47;27.13;;;14.40;;
6983;SDS011;3532;51.118;7.210;2023-11-21T13:00:16;26.13;;;13.93;;
6983;SDS011;3532;51.118;7.210;2023-11-21T13:02:56;28.70;;;15.30;;
6983;SDS011;3532;51.118;7.210;2023-11-21T13:05:28;26.33;;;14.33;;
6983;SDS011;3532;51.118;7.210;2023-11-21T13:07:59;22.93;;;13.33;;
6983;SDS011;3532;51.118;7.210;2023-11-21T13:10:28;24.30;;;14.00;;
6983;SDS011;3532;51.118;7.210;2023-11-21T13:12:57;31.33;;;13.60;;
6983;SDS011;3532;51.118;7.210;2023-11-21T13:15:26;22.97;;;12.53;;
6983;SDS011;3532;51.118;7.210;2023-11-21T13:17:52;23.87;;;13.17;;
6983;SDS011;3532;51.118;7.210;2023-11-21T13:20:18;24.20;;;13.13;;
6983;SDS011;3532;51.118;7.210;2023-11-21T13:23:07;20.97;;;13.23;;
6983;SDS011;3532;51.118;7.210;2023-11-21T13:25:33;25.27;;;13.80;;
6983;SDS011;3532;51.118;7.210;2023-11-21T13:27:58;23.17;;;13.73;;
6983;SDS011;3532;51.118;7.210;2023-11-21T13:30:25;25.10;;;14.20;;
6983;SDS011;3532;51.118;7.210;2023-11-21T13:32:55;22.33;;;13.23;;
6983;SDS011;3532;51.118;7.210;2023-11-21T13:35:27;27.87;;;14.43;;
6983;SDS011;3532;51.118;7.210;2023-11-21T13:38:06;21.03;;;13.17;;
6983;SDS011;3532;51.118;7.210;2023-11-21T13:40:31;28.70;;;14.60;;
6983;SDS011;3532;51.118;7.210;2023-11-21T13:42:59;28.00;;;14.80;;
6983;SDS011;3532;51.118;7.210;2023-11-21T13:45:29;29.40;;;14.50;;
6983;SDS011;3532;51.118;7.210;2023-11-21T13:47:54;25.47;;;13.27;;
6983;SDS011;3532;51.118;7.210;2023-11-21T13:50:23;23.23;;;13.37;;
6983;SDS011;3532;51.118;7.210;2023-11-21T13:52:51;31.30;;;16.00;;
6983;SDS011;3532;51.118;7.210;2023-11-21T13:55:18;29.37;;;15.33;;
6983;SDS011;3532;51.118;7.210;2023-11-21T13:57:43;28.97;;;16.33;;
6983;SDS011;3532;51.118;7.210;2023-11-21T14:00:14;34.80;;;15.60;;
6983;SDS011;3532;51.118;7.210;2023-11-21T14:02:59;26.93;;;16.73;;
6983;SDS011;3532;51.118;7.210;2023-11-21T14:05:26;33.20;;;17.37;;
6983;SDS011;3532;51.118;7.210;2023-11-21T14:07:54;30.67;;;17.20;;
6983;SDS011;3532;51.118;7.210;2023-11-21T14:10:21;32.40;;;16.87;;
6983;SDS011;3532;51.118;7.210;2023-11-21T14:12:49;30.50;;;17.93;;
6983;SDS011;3532;51.118;7.210;2023-11-21T14:15:14;36.20;;;17.70;;
6983;SDS011;3532;51.118;7.210;2023-11-21T14:17:43;31.97;;;17.10;;
6983;SDS011;3532;51.118;7.210;2023-11-21T14:20:09;37.80;;;20.27;;
6983;SDS011;3532;51.118;7.210;2023-11-21T14:22:41;32.63;;;18.50;;
6983;SDS011;3532;51.118;7.210;2023-11-21T14:25:06;29.00;;;17.03;;
6983;SDS011;3532;51.118;7.210;2023-11-21T14:27:32;32.73;;;17.67;;
6983;SDS011;3532;51.118;7.210;2023-11-21T14:29:58;29.63;;;16.57;;
6983;SDS011;3532;51.118;7.210;2023-11-21T14:32:24;26.53;;;16.63;;
6983;SDS011;3532;51.118;7.210;2023-11-21T14:34:50;20.47;;;14.53;;
6983;SDS011;3532;51.118;7.210;2023-11-21T14:37:16;17.33;;;13.30;;
6983;SDS011;3532;51.118;7.210;2023-11-21T14:39:41;25.53;;;15.50;;
6983;SDS011;3532;51.118;7.210;2023-11-21T14:42:10;20.27;;;14.10;;
6983;SDS011;3532;51.118;7.210;2023-11-21T14:44:36;21.37;;;13.53;;
6983;SDS011;3532;51.118;7.210;2023-11-21T14:47:06;20.50;;;13.73;;
6983;SDS011;3532;51.118;7.210;2023-11-21T14:49:39;18.13;;;13.07;;
6983;SDS011;3532;51.118;7.210;2023-11-21T14:52:17;25.17;;;14.33;;
6983;SDS011;3532;51.118;7.210;2023-11-21T14:54:57;23.27;;;14.53;;
6983;SDS011;3532;51.118;7.210;2023-11-21T14:57:41;25.37;;;16.13;;
6983;SDS011;3532;51.118;7.210;2023-11-21T15:00:14;22.57;;;17.47;;
6983;SDS011;3532;51.118;7.210;2023-11-21T15:03:00;26.17;;;18.90;;
6983;SDS011;3532;51.118;7.210;2023-11-21T15:05:26;31.67;;;21.37;;
6983;SDS011;3532;51.118;7.210;2023-11-21T15:07:53;32.33;;;21.33;;